sensor_id;sensor_type;location;lat;lon;timestamp;temperature;humidity
3330;DHT22;1677;49.576;10.990;2023-05-02T00:00:35;8.50;99.90
3330;DHT22;1677;49.576;10.990;2023-05-02T00:03:01;8.40;99.90
3330;DHT22;1677;49.576;10.990;2023-05-02T00:05:28;8.50;99.90
3330;DHT22;1677;49.576;10.990;2023-05-02T00:07:54;8.40;99.90
3330;DHT22;1677;49.576;10.990;2023-05-02T00:10:19;8.30;99.90
3330;DHT22;1677;49.576;10.990;2023-05-02T00:12:45;8.30;99.90
3330;DHT22;1677;49.576;10.990;2023-05-02T00:15:11;8.30;99.90
3330;DHT22;1677;49.576;10.990;2023-05-02T00:17:39;8.30;99.90
3330;DHT22;1677;49.576;10.990;2023-05-02T00:20:07;8.30;99.90
3330;DHT22;1677;49.576;10.990;2023-05-02T00:22:34;8.20;99.90
3330;DHT22;1677;49.576;10.990;2023-05-02T00:25:00;8.20;99.90
3330;DHT22;1677;49.576;10.990;2023-05-02T00:27:26;8.10;99.90
3330;DHT22;1677;49.576;10.990;2023-05-02T00:29:52;8.20;99.90
3330;DHT22;1677;49.576;10.990;2023-05-02T00:32:18;8.20;99.90
3330;DHT22;1677;49.576;10.990;2023-05-02T00:34:44;8.10;99.90
3330;DHT22;1677;49.576;10.990;2023-05-02T00:37:09;8.10;99.90
3330;DHT22;1677;49.576;10.990;2023-05-02T00:39:35;8.10;99.90
3330;DHT22;1677;49.576;10.990;2023-05-02T00:42:01;8.00;99.90
3330;DHT22;1677;49.576;10.990;2023-05-02T00:44:27;8.00;99.90
3330;DHT22;1677;49.576;10.990;2023-05-02T00:46:56;8.00;99.90
3330;DHT22;1677;49.576;10.990;2023-05-02T00:49:22;8.00;99.90
3330;DHT22;1677;49.576;10.990;2023-05-02T00:51:48;8.00;99.90
3330;DHT22;1677;49.576;10.990;2023-05-02T00:54:13;8.10;99.90
3330;DHT22;1677;49.576;10.990;2023-05-02T00:56:39;8.10;99.90
3330;DHT22;1677;49.576;10.990;2023-05-02T00:59:07;8.10;99.90
3330;DHT22;1677;49.576;10.990;2023-05-02T01:07:08;8.10;99.90
3330;DHT22;1677;49.576;10.990;2023-05-02T01:12:26;8.10;99.90
3330;DHT22;1677;49.576;10.990;2023-05-02T01:14:54;8.10;99.90
3330;DHT22;1677;49.576;10.990;2023-05-02T01:17:24;8.10;99.90
3330;DHT22;1677;49.576;10.990;2023-05-02T01:19:57;8.10;99.90
3330;DHT22;1677;49.576;10.990;2023-05-02T01:22:27;8.00;99.90
3330;DHT22;1677;49.576;10.990;2023-05-02T01:27:33;7.90;99.90
3330;DHT22;1677;49.576;10.990;2023-05-02T01:30:02;7.80;99.90
3330;DHT22;1677;49.576;10.990;2023-05-02T01:32:30;7.80;99.90
3330;DHT22;1677;49.576;10.990;2023-05-02T01:34:58;7.60;99.90
3330;DHT22;1677;49.576;10.990;2023-05-02T01:37:26;7.60;99.90
3330;DHT22;1677;49.576;10.990;2023-05-02T01:39:54;7.60;99.90
3330;DHT22;1677;49.576;10.990;2023-05-02T01:42:22;7.80;99.90
3330;DHT22;1677;49.576;10.990;2023-05-02T01:44:50;7.80;99.90
3330;DHT22;1677;49.576;10.990;2023-05-02T01:47:18;7.80;99.90
3330;DHT22;1677;49.576;10.990;2023-05-02T01:49:45;7.70;99.90
3330;DHT22;1677;49.576;10.990;2023-05-02T01:52:13;7.70;99.90
3330;DHT22;1677;49.576;10.990;2023-05-02T01:54:40;7.90;99.90
3330;DHT22;1677;49.576;10.990;2023-05-02T01:57:07;7.80;99.90
3330;DHT22;1677;49.576;10.990;2023-05-02T01:59:34;7.70;99.90
3330;DHT22;1677;49.576;10.990;2023-05-02T02:02:01;7.60;99.90
3330;DHT22;1677;49.576;10.990;2023-05-02T02:04:29;7.60;99.90
3330;DHT22;1677;49.576;10.990;2023-05-02T02:07:02;7.60;99.90
3330;DHT22;1677;49.576;10.990;2023-05-02T02:09:29;7.60;99.90
3330;DHT22;1677;49.576;10.990;2023-05-02T02:14:48;7.70;99.90
3330;DHT22;1677;49.576;10.990;2023-05-02T02:17:23;8.00;99.90
3330;DHT22;1677;49.576;10.990;2023-05-02T02:19:52;8.00;99.90
3330;DHT22;1677;49.576;10.990;2023-05-02T02:22:21;8.00;99.90
3330;DHT22;1677;49.576;10.990;2023-05-02T02:24:48;7.80;99.90
3330;DHT22;1677;49.576;10.990;2023-05-02T02:27:17;7.60;99.90
3330;DHT22;1677;49.576;10.990;2023-05-02T02:29:42;7.60;99.90
3330;DHT22;1677;49.576;10.990;2023-05-02T02:32:08;7.60;99.90
3330;DHT22;1677;49.576;10.990;2023-05-02T02:34:34;7.60;99.90
3330;DHT22;1677;49.576;10.990;2023-05-02T02:37:07;7.50;99.90
3330;DHT22;1677;49.576;10.990;2023-05-02T02:42:31;7.40;99.90
3330;DHT22;1677;49.576;10.990;2023-05-02T02:47:53;7.60;99.90
3330;DHT22;1677;49.576;10.990;2023-05-02T02:53:19;7.50;99.90
3330;DHT22;1677;49.576;10.990;2023-05-02T02:56:00;7.40;99.90
3330;DHT22;1677;49.576;10.990;2023-05-02T02:58:48;7.40;99.90
3330;DHT22;1677;49.576;10.990;2023-05-02T03:01:21;7.40;99.90
3330;DHT22;1677;49.576;10.990;2023-05-02T03:03:50;7.30;99.90
3330;DHT22;1677;49.576;10.990;2023-05-02T03:06:19;7.50;99.90
3330;DHT22;1677;49.576;10.990;2023-05-02T03:08:45;7.40;99.90
3330;DHT22;1677;49.576;10.990;2023-05-02T03:11:11;7.40;99.90
3330;DHT22;1677;49.576;10.990;2023-05-02T03:13:36;7.30;99.90
3330;DHT22;1677;49.576;10.990;2023-05-02T03:16:31;7.30;99.90
3330;DHT22;1677;49.576;10.990;2023-05-02T03:18:58;7.30;99.90
3330;DHT22;1677;49.576;10.990;2023-05-02T03:21:23;7.30;99.90
3330;DHT22;1677;49.576;10.990;2023-05-02T03:23:49;7.50;99.90
3330;DHT22;1677;49.576;10.990;2023-05-02T03:26:15;7.40;99.90
3330;DHT22;1677;49.576;10.990;2023-05-02T03:28:41;7.70;99.90
3330;DHT22;1677;49.576;10.990;2023-05-02T03:31:07;7.50;99.90
3330;DHT22;1677;49.576;10.990;2023-05-02T03:33:32;7.40;99.90
3330;DHT22;1677;49.576;10.990;2023-05-02T03:35:58;7.20;99.90
3330;DHT22;1677;49.576;10.990;2023-05-02T03:38:23;7.20;99.90
3330;DHT22;1677;49.576;10.990;2023-05-02T03:40:49;7.30;99.90
3330;DHT22;1677;49.576;10.990;2023-05-02T03:43:15;7.30;99.90
3330;DHT22;1677;49.576;10.990;2023-05-02T03:45:40;7.30;99.90
3330;DHT22;1677;49.576;10.990;2023-05-02T03:48:06;7.20;99.90
3330;DHT22;1677;49.576;10.990;2023-05-02T03:50:31;7.20;99.90
3330;DHT22;1677;49.576;10.990;2023-05-02T03:52:57;7.20;99.90
3330;DHT22;1677;49.576;10.990;2023-05-02T03:55:23;7.30;99.90
3330;DHT22;1677;49.576;10.990;2023-05-02T03:57:48;7.40;99.90
3330;DHT22;1677;49.576;10.990;2023-05-02T04:00:14;7.30;99.90
3330;DHT22;1677;49.576;10.990;2023-05-02T04:02:39;7.40;99.90
3330;DHT22;1677;49.576;10.990;2023-05-02T04:05:05;7.60;99.90
3330;DHT22;1677;49.576;10.990;2023-05-02T04:07:30;7.60;99.90
3330;DHT22;1677;49.576;10.990;2023-05-02T04:09:56;7.50;99.90
3330;DHT22;1677;49.576;10.990;2023-05-02T04:12:21;7.50;99.90
3330;DHT22;1677;49.576;10.990;2023-05-02T04:14:47;7.50;99.90
3330;DHT22;1677;49.576;10.990;2023-05-02T04:17:13;7.50;99.90
3330;DHT22;1677;49.576;10.990;2023-05-02T04:19:40;7.50;99.90
3330;DHT22;1677;49.576;10.990;2023-05-02T04:22:05;7.40;99.90
3330;DHT22;1677;49.576;10.990;2023-05-02T04:24:31;7.50;99.90
3330;DHT22;1677;49.576;10.990;2023-05-02T04:26:56;7.60;99.90
3330;DHT22;1677;49.576;10.990;2023-05-02T04:29:22;7.80;99.90
3330;DHT22;1677;49.576;10.990;2023-05-02T04:31:47;7.90;99.90
3330;DHT22;1677;49.576;10.990;2023-05-02T04:34:15;8.00;99.90
3330;DHT22;1677;49.576;10.990;2023-05-02T04:36:40;8.10;99.90
3330;DHT22;1677;49.576;10.990;2023-05-02T04:39:06;8.40;99.90
3330;DHT22;1677;49.576;10.990;2023-05-02T04:41:32;8.40;99.90
3330;DHT22;1677;49.576;10.990;2023-05-02T04:43:58;8.30;99.90
3330;DHT22;1677;49.576;10.990;2023-05-02T04:46:23;8.30;99.90
3330;DHT22;1677;49.576;10.990;2023-05-02T04:48:49;8.40;99.90
3330;DHT22;1677;49.576;10.990;2023-05-02T04:51:15;8.50;99.90
3330;DHT22;1677;49.576;10.990;2023-05-02T04:53:40;8.50;99.90
3330;DHT22;1677;49.576;10.990;2023-05-02T04:56:07;8.50;99.90
3330;DHT22;1677;49.576;10.990;2023-05-02T04:58:32;8.40;99.90
3330;DHT22;1677;49.576;10.990;2023-05-02T05:00:59;8.40;99.90
3330;DHT22;1677;49.576;10.990;2023-05-02T05:03:26;8.40;99.90
3330;DHT22;1677;49.576;10.990;2023-05-02T05:05:54;8.40;99.90
3330;DHT22;1677;49.576;10.990;2023-05-02T05:08:20;8.30;99.90
3330;DHT22;1677;49.576;10.990;2023-05-02T05:10:46;8.30;99.90
3330;DHT22;1677;49.576;10.990;2023-05-02T05:13:11;8.40;99.90
3330;DHT22;1677;49.576;10.990;2023-05-02T05:15:38;8.40;99.90
3330;DHT22;1677;49.576;10.990;2023-05-02T05:18:04;8.30;99.90
3330;DHT22;1677;49.576;10.990;2023-05-02T05:20:30;8.30;99.90
3330;DHT22;1677;49.576;10.990;2023-05-02T05:22:56;8.40;99.90
3330;DHT22;1677;49.576;10.990;2023-05-02T05:25:22;8.50;99.90
3330;DHT22;1677;49.576;10.990;2023-05-02T05:27:47;8.50;99.90
3330;DHT22;1677;49.576;10.990;2023-05-02T05:30:13;8.70;99.90
3330;DHT22;1677;49.576;10.990;2023-05-02T05:32:39;8.80;99.90
3330;DHT22;1677;49.576;10.990;2023-05-02T05:35:04;8.60;99.90
3330;DHT22;1677;49.576;10.990;2023-05-02T05:37:30;8.60;99.90
3330;DHT22;1677;49.576;10.990;2023-05-02T05:39:56;8.50;99.90
3330;DHT22;1677;49.576;10.990;2023-05-02T05:42:21;8.70;99.90
3330;DHT22;1677;49.576;10.990;2023-05-02T05:44:47;8.60;99.90
3330;DHT22;1677;49.576;10.990;2023-05-02T05:47:18;8.60;99.90
3330;DHT22;1677;49.576;10.990;2023-05-02T05:49:43;8.60;99.90
3330;DHT22;1677;49.576;10.990;2023-05-02T05:52:09;8.80;99.90
3330;DHT22;1677;49.576;10.990;2023-05-02T05:54:34;9.00;99.90
3330;DHT22;1677;49.576;10.990;2023-05-02T05:57:00;8.90;99.90
3330;DHT22;1677;49.576;10.990;2023-05-02T05:59:25;9.10;99.90
3330;DHT22;1677;49.576;10.990;2023-05-02T06:01:51;9.00;99.90
3330;DHT22;1677;49.576;10.990;2023-05-02T06:04:18;9.20;99.90
3330;DHT22;1677;49.576;10.990;2023-05-02T06:06:43;9.20;99.90
3330;DHT22;1677;49.576;10.990;2023-05-02T06:09:09;9.30;99.90
3330;DHT22;1677;49.576;10.990;2023-05-02T06:11:36;9.30;99.90
3330;DHT22;1677;49.576;10.990;2023-05-02T06:14:02;9.10;99.90
3330;DHT22;1677;49.576;10.990;2023-05-02T06:16:28;9.00;99.90
3330;DHT22;1677;49.576;10.990;2023-05-02T06:18:53;9.10;99.90
3330;DHT22;1677;49.576;10.990;2023-05-02T06:21:19;9.20;99.90
3330;DHT22;1677;49.576;10.990;2023-05-02T06:23:44;9.30;99.90
3330;DHT22;1677;49.576;10.990;2023-05-02T06:26:10;9.30;99.90
3330;DHT22;1677;49.576;10.990;2023-05-02T06:28:36;9.40;99.90
3330;DHT22;1677;49.576;10.990;2023-05-02T06:31:03;9.40;99.90
3330;DHT22;1677;49.576;10.990;2023-05-02T06:33:30;9.50;99.90
3330;DHT22;1677;49.576;10.990;2023-05-02T06:35:56;9.40;99.90
3330;DHT22;1677;49.576;10.990;2023-05-02T06:38:23;9.40;99.90
3330;DHT22;1677;49.576;10.990;2023-05-02T06:40:49;9.40;99.90
3330;DHT22;1677;49.576;10.990;2023-05-02T06:43:15;9.50;99.90
3330;DHT22;1677;49.576;10.990;2023-05-02T06:45:41;9.60;99.90
3330;DHT22;1677;49.576;10.990;2023-05-02T06:48:07;9.60;99.90
3330;DHT22;1677;49.576;10.990;2023-05-02T06:50:33;9.60;99.90
3330;DHT22;1677;49.576;10.990;2023-05-02T06:52:59;9.70;99.90
3330;DHT22;1677;49.576;10.990;2023-05-02T06:55:25;10.00;99.90
3330;DHT22;1677;49.576;10.990;2023-05-02T06:57:51;10.10;99.90
3330;DHT22;1677;49.576;10.990;2023-05-02T07:00:17;10.10;99.90
3330;DHT22;1677;49.576;10.990;2023-05-02T07:02:44;10.10;99.90
3330;DHT22;1677;49.576;10.990;2023-05-02T07:05:11;10.10;99.90
3330;DHT22;1677;49.576;10.990;2023-05-02T07:07:37;10.10;99.90
3330;DHT22;1677;49.576;10.990;2023-05-02T07:10:03;10.20;99.90
3330;DHT22;1677;49.576;10.990;2023-05-02T07:12:28;10.60;99.90
3330;DHT22;1677;49.576;10.990;2023-05-02T07:14:54;10.60;99.90
3330;DHT22;1677;49.576;10.990;2023-05-02T07:17:20;10.50;99.90
3330;DHT22;1677;49.576;10.990;2023-05-02T07:19:45;10.50;99.90
3330;DHT22;1677;49.576;10.990;2023-05-02T07:22:11;10.40;99.90
3330;DHT22;1677;49.576;10.990;2023-05-02T07:24:40;10.40;99.90
3330;DHT22;1677;49.576;10.990;2023-05-02T07:27:08;10.40;99.90
3330;DHT22;1677;49.576;10.990;2023-05-02T07:29:34;10.60;99.90
3330;DHT22;1677;49.576;10.990;2023-05-02T07:32:00;10.40;99.90
3330;DHT22;1677;49.576;10.990;2023-05-02T07:34:26;10.40;99.90
3330;DHT22;1677;49.576;10.990;2023-05-02T07:36:51;10.40;99.90
3330;DHT22;1677;49.576;10.990;2023-05-02T07:39:17;10.50;99.90
3330;DHT22;1677;49.576;10.990;2023-05-02T07:41:43;10.50;99.90
3330;DHT22;1677;49.576;10.990;2023-05-02T07:44:08;10.60;99.90
3330;DHT22;1677;49.576;10.990;2023-05-02T07:46:34;10.60;99.90
3330;DHT22;1677;49.576;10.990;2023-05-02T07:49:00;10.70;99.90
3330;DHT22;1677;49.576;10.990;2023-05-02T07:51:25;10.70;99.90
3330;DHT22;1677;49.576;10.990;2023-05-02T07:53:51;10.60;99.90
3330;DHT22;1677;49.576;10.990;2023-05-02T07:56:23;10.60;99.90
3330;DHT22;1677;49.576;10.990;2023-05-02T07:58:49;10.70;99.90
3330;DHT22;1677;49.576;10.990;2023-05-02T08:01:16;10.90;99.90
3330;DHT22;1677;49.576;10.990;2023-05-02T08:03:42;11.10;99.90
3330;DHT22;1677;49.576;10.990;2023-05-02T08:06:08;11.60;99.90
3330;DHT22;1677;49.576;10.990;2023-05-02T08:08:34;11.70;99.90
3330;DHT22;1677;49.576;10.990;2023-05-02T08:11:00;12.10;99.90
3330;DHT22;1677;49.576;10.990;2023-05-02T08:13:26;12.20;99.90
3330;DHT22;1677;49.576;10.990;2023-05-02T08:15:53;12.60;99.90
3330;DHT22;1677;49.576;10.990;2023-05-02T08:18:23;13.00;99.90
3330;DHT22;1677;49.576;10.990;2023-05-02T08:20:49;13.60;99.90
3330;DHT22;1677;49.576;10.990;2023-05-02T08:23:15;14.10;99.90
3330;DHT22;1677;49.576;10.990;2023-05-02T08:25:41;14.40;99.90
3330;DHT22;1677;49.576;10.990;2023-05-02T08:28:06;14.40;99.90
3330;DHT22;1677;49.576;10.990;2023-05-02T08:30:32;14.40;99.90
3330;DHT22;1677;49.576;10.990;2023-05-02T08:32:57;14.40;99.90
3330;DHT22;1677;49.576;10.990;2023-05-02T08:35:23;14.40;99.90
3330;DHT22;1677;49.576;10.990;2023-05-02T08:37:48;14.50;99.90
3330;DHT22;1677;49.576;10.990;2023-05-02T08:40:16;14.60;99.90
3330;DHT22;1677;49.576;10.990;2023-05-02T08:42:42;15.60;99.90
3330;DHT22;1677;49.576;10.990;2023-05-02T08:45:10;17.30;99.90
3330;DHT22;1677;49.576;10.990;2023-05-02T08:47:39;18.80;99.90
3330;DHT22;1677;49.576;10.990;2023-05-02T08:50:05;20.50;99.90
3330;DHT22;1677;49.576;10.990;2023-05-02T08:52:31;22.40;99.90
3330;DHT22;1677;49.576;10.990;2023-05-02T08:54:58;24.60;99.40
3330;DHT22;1677;49.576;10.990;2023-05-02T08:57:28;25.90;94.30
3330;DHT22;1677;49.576;10.990;2023-05-02T08:59:54;26.30;91.20
3330;DHT22;1677;49.576;10.990;2023-05-02T09:02:48;26.90;85.80
3330;DHT22;1677;49.576;10.990;2023-05-02T09:05:19;26.20;85.40
3330;DHT22;1677;49.576;10.990;2023-05-02T09:07:49;25.40;86.40
3330;DHT22;1677;49.576;10.990;2023-05-02T09:10:15;24.90;89.20
3330;DHT22;1677;49.576;10.990;2023-05-02T09:12:41;25.10;90.30
3330;DHT22;1677;49.576;10.990;2023-05-02T09:15:15;26.40;84.80
3330;DHT22;1677;49.576;10.990;2023-05-02T09:17:46;27.60;80.10
3330;DHT22;1677;49.576;10.990;2023-05-02T09:20:13;26.90;76.90
3330;DHT22;1677;49.576;10.990;2023-05-02T09:22:50;27.30;75.70
3330;DHT22;1677;49.576;10.990;2023-05-02T09:25:16;27.20;75.30
3330;DHT22;1677;49.576;10.990;2023-05-02T09:27:52;26.30;77.10
3330;DHT22;1677;49.576;10.990;2023-05-02T09:30:23;25.30;78.40
3330;DHT22;1677;49.576;10.990;2023-05-02T09:32:49;24.80;86.00
3330;DHT22;1677;49.576;10.990;2023-05-02T09:35:16;25.20;83.30
3330;DHT22;1677;49.576;10.990;2023-05-02T09:37:57;24.90;83.20
3330;DHT22;1677;49.576;10.990;2023-05-02T09:40:23;24.50;81.90
3330;DHT22;1677;49.576;10.990;2023-05-02T09:42:51;24.30;80.80
3330;DHT22;1677;49.576;10.990;2023-05-02T09:47:46;24.40;85.40
3330;DHT22;1677;49.576;10.990;2023-05-02T09:50:31;25.00;79.40
3330;DHT22;1677;49.576;10.990;2023-05-02T09:53:05;25.50;78.80
3330;DHT22;1677;49.576;10.990;2023-05-02T09:55:31;27.60;74.70
3330;DHT22;1677;49.576;10.990;2023-05-02T09:57:57;29.00;71.60
3330;DHT22;1677;49.576;10.990;2023-05-02T10:00:37;30.00;65.80
3330;DHT22;1677;49.576;10.990;2023-05-02T10:03:05;30.40;64.20
3330;DHT22;1677;49.576;10.990;2023-05-02T10:05:34;30.50;59.90
3330;DHT22;1677;49.576;10.990;2023-05-02T10:08:02;30.60;56.30
3330;DHT22;1677;49.576;10.990;2023-05-02T10:10:28;31.20;54.70
3330;DHT22;1677;49.576;10.990;2023-05-02T10:12:54;30.20;54.50
3330;DHT22;1677;49.576;10.990;2023-05-02T10:15:21;28.30;57.80
3330;DHT22;1677;49.576;10.990;2023-05-02T10:17:49;26.30;64.90
3330;DHT22;1677;49.576;10.990;2023-05-02T10:20:22;25.40;66.30
3330;DHT22;1677;49.576;10.990;2023-05-02T10:22:50;24.10;71.30
3330;DHT22;1677;49.576;10.990;2023-05-02T10:25:18;24.30;75.50
3330;DHT22;1677;49.576;10.990;2023-05-02T10:27:44;23.80;69.60
3330;DHT22;1677;49.576;10.990;2023-05-02T10:30:12;22.70;78.10
3330;DHT22;1677;49.576;10.990;2023-05-02T10:32:37;24.00;78.60
3330;DHT22;1677;49.576;10.990;2023-05-02T10:35:05;26.70;76.80
3330;DHT22;1677;49.576;10.990;2023-05-02T10:37:33;29.10;63.20
3330;DHT22;1677;49.576;10.990;2023-05-02T10:39:59;30.70;57.10
3330;DHT22;1677;49.576;10.990;2023-05-02T10:42:25;30.50;50.70
3330;DHT22;1677;49.576;10.990;2023-05-02T10:44:52;29.00;54.10
3330;DHT22;1677;49.576;10.990;2023-05-02T10:47:19;28.30;55.10
3330;DHT22;1677;49.576;10.990;2023-05-02T10:50:00;27.60;58.50
3330;DHT22;1677;49.576;10.990;2023-05-02T10:52:30;28.10;55.90
3330;DHT22;1677;49.576;10.990;2023-05-02T10:55:26;28.00;55.70
3330;DHT22;1677;49.576;10.990;2023-05-02T11:00:27;25.30;59.90
3330;DHT22;1677;49.576;10.990;2023-05-02T11:02:53;24.40;64.10
3330;DHT22;1677;49.576;10.990;2023-05-02T11:05:21;23.50;69.80
3330;DHT22;1677;49.576;10.990;2023-05-02T11:07:47;23.30;66.50
3330;DHT22;1677;49.576;10.990;2023-05-02T11:12:48;22.20;75.10
3330;DHT22;1677;49.576;10.990;2023-05-02T11:15:14;21.70;75.30
3330;DHT22;1677;49.576;10.990;2023-05-02T11:18:05;21.10;76.90
3330;DHT22;1677;49.576;10.990;2023-05-02T11:20:32;20.70;80.50
3330;DHT22;1677;49.576;10.990;2023-05-02T11:25:49;20.40;80.00
3330;DHT22;1677;49.576;10.990;2023-05-02T11:31:04;19.60;87.20
3330;DHT22;1677;49.576;10.990;2023-05-02T11:33:30;19.50;88.50
3330;DHT22;1677;49.576;10.990;2023-05-02T11:35:56;19.30;90.00
3330;DHT22;1677;49.576;10.990;2023-05-02T11:38:24;18.90;91.20
3330;DHT22;1677;49.576;10.990;2023-05-02T11:40:57;18.50;92.80
3330;DHT22;1677;49.576;10.990;2023-05-02T11:43:25;18.10;93.90
3330;DHT22;1677;49.576;10.990;2023-05-02T11:45:52;18.20;95.50
3330;DHT22;1677;49.576;10.990;2023-05-02T11:48:19;18.60;98.60
3330;DHT22;1677;49.576;10.990;2023-05-02T11:50:47;18.90;99.80
3330;DHT22;1677;49.576;10.990;2023-05-02T11:53:15;19.80;99.90
3330;DHT22;1677;49.576;10.990;2023-05-02T11:55:45;20.40;96.70
3330;DHT22;1677;49.576;10.990;2023-05-02T11:58:13;20.50;96.10
3330;DHT22;1677;49.576;10.990;2023-05-02T12:00:39;20.40;94.90
3330;DHT22;1677;49.576;10.990;2023-05-02T12:03:04;19.80;95.30
3330;DHT22;1677;49.576;10.990;2023-05-02T12:05:30;19.50;95.10
3330;DHT22;1677;49.576;10.990;2023-05-02T12:07:57;19.30;95.80
3330;DHT22;1677;49.576;10.990;2023-05-02T12:10:22;18.80;95.40
3330;DHT22;1677;49.576;10.990;2023-05-02T12:13:04;18.40;99.90
3330;DHT22;1677;49.576;10.990;2023-05-02T12:15:30;18.20;99.90
3330;DHT22;1677;49.576;10.990;2023-05-02T12:17:56;17.90;99.90
3330;DHT22;1677;49.576;10.990;2023-05-02T12:20:21;17.50;99.90
3330;DHT22;1677;49.576;10.990;2023-05-02T12:22:47;17.00;99.90
3330;DHT22;1677;49.576;10.990;2023-05-02T12:25:13;17.00;99.90
3330;DHT22;1677;49.576;10.990;2023-05-02T12:27:39;16.70;99.90
3330;DHT22;1677;49.576;10.990;2023-05-02T12:30:05;16.50;99.90
3330;DHT22;1677;49.576;10.990;2023-05-02T12:32:33;16.40;99.90
3330;DHT22;1677;49.576;10.990;2023-05-02T12:35:00;16.40;99.90
3330;DHT22;1677;49.576;10.990;2023-05-02T12:37:26;16.50;99.90
3330;DHT22;1677;49.576;10.990;2023-05-02T12:39:53;16.60;99.90
3330;DHT22;1677;49.576;10.990;2023-05-02T12:42:20;16.70;99.90
3330;DHT22;1677;49.576;10.990;2023-05-02T12:44:48;16.80;99.90
3330;DHT22;1677;49.576;10.990;2023-05-02T12:47:16;16.70;99.90
3330;DHT22;1677;49.576;10.990;2023-05-02T12:49:52;16.40;99.90
3330;DHT22;1677;49.576;10.990;2023-05-02T12:52:45;16.10;99.90
3330;DHT22;1677;49.576;10.990;2023-05-02T12:55:17;15.90;99.90
3330;DHT22;1677;49.576;10.990;2023-05-02T12:57:43;16.20;99.90
3330;DHT22;1677;49.576;10.990;2023-05-02T13:00:09;15.90;99.90
3330;DHT22;1677;49.576;10.990;2023-05-02T13:02:35;15.70;99.90
3330;DHT22;1677;49.576;10.990;2023-05-02T13:05:00;15.50;99.90
3330;DHT22;1677;49.576;10.990;2023-05-02T13:07:26;15.40;99.90
3330;DHT22;1677;49.576;10.990;2023-05-02T13:09:51;15.30;99.90
3330;DHT22;1677;49.576;10.990;2023-05-02T13:12:17;15.10;99.90
3330;DHT22;1677;49.576;10.990;2023-05-02T13:14:43;14.90;99.90
3330;DHT22;1677;49.576;10.990;2023-05-02T13:17:08;14.50;99.90
3330;DHT22;1677;49.576;10.990;2023-05-02T13:19:34;14.20;99.90
3330;DHT22;1677;49.576;10.990;2023-05-02T13:22:00;13.90;99.90
3330;DHT22;1677;49.576;10.990;2023-05-02T13:24:26;13.80;99.90
3330;DHT22;1677;49.576;10.990;2023-05-02T13:26:51;13.80;99.90
3330;DHT22;1677;49.576;10.990;2023-05-02T13:29:17;13.80;99.90
3330;DHT22;1677;49.576;10.990;2023-05-02T13:31:42;13.90;99.90
3330;DHT22;1677;49.576;10.990;2023-05-02T13:34:08;14.20;99.90
3330;DHT22;1677;49.576;10.990;2023-05-02T13:36:33;14.80;99.90
3330;DHT22;1677;49.576;10.990;2023-05-02T13:39:00;15.70;99.90
3330;DHT22;1677;49.576;10.990;2023-05-02T13:41:26;16.70;99.90
3330;DHT22;1677;49.576;10.990;2023-05-02T13:43:52;17.50;99.90
3330;DHT22;1677;49.576;10.990;2023-05-02T13:46:18;18.00;99.90
3330;DHT22;1677;49.576;10.990;2023-05-02T13:48:43;18.20;99.90
3330;DHT22;1677;49.576;10.990;2023-05-02T13:51:09;18.20;99.90
3330;DHT22;1677;49.576;10.990;2023-05-02T13:53:35;18.40;99.90
3330;DHT22;1677;49.576;10.990;2023-05-02T13:56:00;18.50;99.90
3330;DHT22;1677;49.576;10.990;2023-05-02T13:58:26;18.70;99.90
3330;DHT22;1677;49.576;10.990;2023-05-02T14:00:51;18.80;99.90
3330;DHT22;1677;49.576;10.990;2023-05-02T14:03:17;18.80;99.90
3330;DHT22;1677;49.576;10.990;2023-05-02T14:05:43;18.40;99.90
3330;DHT22;1677;49.576;10.990;2023-05-02T14:08:09;18.10;99.90
3330;DHT22;1677;49.576;10.990;2023-05-02T14:10:35;17.90;99.90
3330;DHT22;1677;49.576;10.990;2023-05-02T14:13:02;17.70;99.90
3330;DHT22;1677;49.576;10.990;2023-05-02T14:15:28;17.70;99.90
3330;DHT22;1677;49.576;10.990;2023-05-02T14:17:54;17.70;99.90
3330;DHT22;1677;49.576;10.990;2023-05-02T14:20:19;17.90;99.90
3330;DHT22;1677;49.576;10.990;2023-05-02T14:22:47;17.90;99.90
3330;DHT22;1677;49.576;10.990;2023-05-02T14:25:13;17.70;99.90
3330;DHT22;1677;49.576;10.990;2023-05-02T14:27:40;17.60;99.90
3330;DHT22;1677;49.576;10.990;2023-05-02T14:30:07;17.60;99.90
3330;DHT22;1677;49.576;10.990;2023-05-02T14:32:33;17.60;99.90
3330;DHT22;1677;49.576;10.990;2023-05-02T14:34:58;17.60;99.90
3330;DHT22;1677;49.576;10.990;2023-05-02T14:37:24;17.60;99.90
3330;DHT22;1677;49.576;10.990;2023-05-02T14:39:50;17.50;99.90
3330;DHT22;1677;49.576;10.990;2023-05-02T14:42:20;17.40;99.90
3330;DHT22;1677;49.576;10.990;2023-05-02T14:44:46;17.20;99.90
3330;DHT22;1677;49.576;10.990;2023-05-02T14:47:11;17.10;99.90
3330;DHT22;1677;49.576;10.990;2023-05-02T14:49:37;17.00;99.90
3330;DHT22;1677;49.576;10.990;2023-05-02T14:52:02;17.10;99.90
3330;DHT22;1677;49.576;10.990;2023-05-02T14:54:28;17.20;99.90
3330;DHT22;1677;49.576;10.990;2023-05-02T14:56:54;17.00;99.90
3330;DHT22;1677;49.576;10.990;2023-05-02T14:59:21;17.00;99.90
3330;DHT22;1677;49.576;10.990;2023-05-02T15:01:47;17.20;99.90
3330;DHT22;1677;49.576;10.990;2023-05-02T15:04:12;17.20;99.90
3330;DHT22;1677;49.576;10.990;2023-05-02T15:06:38;17.30;99.90
3330;DHT22;1677;49.576;10.990;2023-05-02T15:09:04;17.10;99.90
3330;DHT22;1677;49.576;10.990;2023-05-02T15:11:30;16.90;99.90
3330;DHT22;1677;49.576;10.990;2023-05-02T15:13:56;16.90;99.90
3330;DHT22;1677;49.576;10.990;2023-05-02T15:16:22;17.00;99.90
3330;DHT22;1677;49.576;10.990;2023-05-02T15:18:48;16.80;99.90
3330;DHT22;1677;49.576;10.990;2023-05-02T15:21:13;16.90;99.90
3330;DHT22;1677;49.576;10.990;2023-05-02T15:23:39;16.70;99.90
3330;DHT22;1677;49.576;10.990;2023-05-02T15:26:04;16.60;99.90
3330;DHT22;1677;49.576;10.990;2023-05-02T15:28:30;16.60;99.90
3330;DHT22;1677;49.576;10.990;2023-05-02T15:30:56;16.80;99.90
3330;DHT22;1677;49.576;10.990;2023-05-02T15:33:21;16.90;99.90
3330;DHT22;1677;49.576;10.990;2023-05-02T15:35:55;16.90;99.90
3330;DHT22;1677;49.576;10.990;2023-05-02T15:38:21;17.00;99.90
3330;DHT22;1677;49.576;10.990;2023-05-02T15:40:54;16.80;99.90
3330;DHT22;1677;49.576;10.990;2023-05-02T15:43:20;16.70;99.90
3330;DHT22;1677;49.576;10.990;2023-05-02T15:45:50;16.80;99.90
3330;DHT22;1677;49.576;10.990;2023-05-02T15:48:15;17.00;99.90
3330;DHT22;1677;49.576;10.990;2023-05-02T15:50:41;17.20;99.90
3330;DHT22;1677;49.576;10.990;2023-05-02T15:53:07;17.40;99.90
3330;DHT22;1677;49.576;10.990;2023-05-02T15:55:32;17.40;99.90
3330;DHT22;1677;49.576;10.990;2023-05-02T15:57:59;17.20;99.90
3330;DHT22;1677;49.576;10.990;2023-05-02T16:00:25;17.10;99.90
3330;DHT22;1677;49.576;10.990;2023-05-02T16:02:51;17.00;99.90
3330;DHT22;1677;49.576;10.990;2023-05-02T16:05:16;17.00;99.90
3330;DHT22;1677;49.576;10.990;2023-05-02T16:07:42;17.10;99.90
3330;DHT22;1677;49.576;10.990;2023-05-02T16:10:08;17.00;99.90
3330;DHT22;1677;49.576;10.990;2023-05-02T16:12:34;16.90;99.90
3330;DHT22;1677;49.576;10.990;2023-05-02T16:14:59;17.00;99.90
3330;DHT22;1677;49.576;10.990;2023-05-02T16:17:25;16.90;99.90
3330;DHT22;1677;49.576;10.990;2023-05-02T16:19:51;16.90;99.90
3330;DHT22;1677;49.576;10.990;2023-05-02T16:22:16;16.90;99.90
3330;DHT22;1677;49.576;10.990;2023-05-02T16:24:42;17.00;99.90
3330;DHT22;1677;49.576;10.990;2023-05-02T16:27:07;17.10;99.90